Time;durP1;ratioP1;P1;durP2;ratioP2;P2;SDS_P1;SDS_P2;PMS_P1;PMS_P2;Temp;Humidity;BMP_temperature;BMP_pressure;BME280_temperature;BME280_humidity;BME280_pressure;Samples;Min_cycle;Max_cycle;Signal;HPM_P1;HPM_P2
2022/05/21 00:02:07;;;;;;;2.30;1.80;;;16.20;99.90;;;16.26;72.26;100486.22;5073545;28;20938;-72
2022/05/21 00:04:41;;;;;;;2.03;1.83;;;16.10;99.90;;;16.25;71.82;100490.00;5075146;28;20779;-72
2022/05/21 00:07:11;;;;;;;1.90;1.63;;;;;;;16.16;72.10;100477.84;5075321;28;20432;-73
2022/05/21 00:09:41;;;;;;;2.00;1.50;;;16.00;99.90;;;16.17;71.44;100487.69;5075860;28;20396;-71
2022/05/21 00:12:11;;;;;;;2.37;2.10;;;;;;;16.24;70.45;100496.53;5075896;28;20415;-72
2022/05/21 00:14:40;;;;;;;1.80;1.67;;;15.70;99.90;;;16.30;69.45;100474.53;5075812;28;20817;-71
2022/05/21 00:17:09;;;;;;;3.10;2.07;;;16.10;99.90;;;16.37;69.14;100502.47;5074878;28;20461;-73
2022/05/21 00:19:38;;;;;;;3.37;2.20;;;16.10;99.90;;;16.35;69.57;100503.81;5075859;28;20992;-72
2022/05/21 00:22:07;;;;;;;2.23;1.93;;;16.10;99.90;;;16.35;68.91;100503.81;5078031;28;20422;-72
2022/05/21 00:24:36;;;;;;;2.17;1.97;;;16.10;99.90;;;16.37;69.28;100502.47;5077981;28;20417;-73
2022/05/21 00:27:07;;;;;;;3.10;1.70;;;16.60;99.90;;;16.37;69.61;100501.66;5076683;28;20418;-73
2022/05/21 00:29:36;;;;;;;2.30;1.57;;;16.20;99.90;;;16.33;67.46;100516.88;5075301;28;20476;-74
2022/05/21 00:32:06;;;;;;;2.77;1.93;;;16.10;99.90;;;16.34;68.05;100524.00;5075292;28;20498;-73
2022/05/21 00:34:35;;;;;;;3.30;1.50;;;16.10;99.90;;;16.31;68.47;100519.06;5074802;28;20477;-73
2022/05/21 00:37:06;;;;;;;2.03;1.83;;;16.10;99.90;;;16.28;68.84;100525.00;5075589;28;20478;-73
2022/05/21 00:39:35;;;;;;;2.27;1.93;;;16.10;99.90;;;16.28;68.91;100525.00;5075386;28;20414;-73
2022/05/21 00:42:08;;;;;;;3.07;2.77;;;16.10;99.90;;;16.27;68.20;100524.16;5075049;28;20413;-72
2022/05/21 00:44:37;;;;;;;1.70;1.40;;;16.10;99.90;;;16.28;68.19;100552.28;5074626;28;20424;-73
2022/05/21 00:47:07;;;;;;;2.53;2.33;;;16.10;99.90;;;16.29;67.82;100527.47;5074422;28;20542;-72
2022/05/21 00:49:39;;;;;;;2.53;2.13;;;16.10;99.90;;;16.29;68.13;100557.50;5073248;28;20483;-73
2022/05/21 00:52:13;;;;;;;2.37;2.17;;;16.10;99.90;;;16.32;68.18;100567.09;5075312;28;20423;-72
2022/05/21 00:54:48;;;;;;;3.23;1.97;;;16.10;99.90;;;16.19;68.47;100578.34;5074627;28;20936;-73
2022/05/21 00:57:25;;;;;;;4.50;1.93;;;16.10;99.90;;;16.13;68.60;100582.88;5074815;28;20430;-72
2022/05/21 01:00:01;;;;;;;2.90;1.90;;;16.00;99.90;;;16.13;68.13;100582.06;5075213;28;20785;-73
2022/05/21 01:02:35;;;;;;;4.00;3.00;;;16.00;99.90;;;16.03;68.71;100588.16;5075428;28;20941;-72
2022/05/21 01:05:10;;;;;;;6.27;1.93;;;15.90;99.90;;;16.03;69.18;100583.53;5079407;28;20446;-73
2022/05/21 01:07:41;;;;;;;2.53;2.20;;;15.90;99.90;;;15.96;69.08;100601.97;5079061;28;20459;-73
2022/05/21 01:10:12;;;;;;;2.50;2.30;;;15.80;99.90;;;15.99;69.62;100608.84;5079471;28;20434;-73
2022/05/21 01:12:49;;;;;;;3.97;1.83;;;15.80;99.90;;;15.89;69.74;100604.00;5077696;28;20449;-73
2022/05/21 01:15:23;;;;;;;2.40;1.80;;;15.80;99.90;;;15.79;69.23;100608.44;5078440;28;20487;-73
2022/05/21 01:17:52;;;;;;;3.93;1.67;;;15.70;99.90;;;15.68;68.13;100618.34;5078815;28;20441;-72
2022/05/21 01:20:25;;;;;;;3.30;2.10;;;15.60;99.90;;;15.63;68.26;100623.69;5078722;28;20426;-72
2022/05/21 01:22:55;;;;;;;2.53;2.03;;;15.50;99.90;;;15.56;68.70;100625.72;5074513;28;20430;-72
2022/05/21 01:25:28;;;;;;;3.47;2.20;;;15.40;99.90;;;15.52;68.66;100640.91;5073782;28;20491;-73
2022/05/21 01:27:57;;;;;;;3.33;3.03;;;15.40;99.90;;;15.46;68.66;100633.66;5073543;28;20418;-73
2022/05/21 01:30:34;;;;;;;2.27;2.07;;;15.30;99.90;;;15.38;69.05;100653.97;5074075;28;20426;-73
2022/05/21 01:33:05;;;;;;;1.90;1.63;;;15.30;99.90;;;15.28;69.04;100655.63;5074027;28;20417;-72
2022/05/21 01:35:35;;;;;;;2.90;2.53;;;15.20;99.90;;;15.22;69.43;100665.56;5073639;28;20450;-72
2022/05/21 01:38:07;;;;;;;2.80;1.93;;;15.10;99.90;;;15.16;69.41;100664.63;5073620;28;20425;-73
2022/05/21 01:40:37;;;;;;;4.57;2.93;;;15.10;99.90;;;15.14;69.37;100657.78;5073632;28;20434;-74
2022/05/21 01:45:53;;;;;;;2.83;2.13;;;15.00;99.90;;;15.06;69.43;100669.00;5073490;28;20990;-73
2022/05/21 01:48:26;;;;;;;2.03;1.77;;;14.90;99.90;;;15.00;69.34;100672.69;5073497;28;20868;-72
2022/05/21 01:50:57;;;;;;;2.23;1.90;;;14.90;99.90;;;14.97;69.29;100671.25;5073349;28;20415;-73
2022/05/21 01:53:29;;;;;;;8.90;2.17;;;14.90;99.90;;;14.94;69.66;100674.47;5073275;28;20425;-72
2022/05/21 01:55:59;;;;;;;2.90;2.43;;;14.80;99.90;;;14.85;69.64;100673.16;5072900;28;20843;-73
2022/05/21 01:58:30;;;;;;;1.67;1.57;;;14.70;99.90;;;14.84;69.47;100673.41;5073281;28;20521;-73
2022/05/21 02:00:59;;;;;;;4.07;1.93;;;14.70;99.90;;;14.83;69.09;100686.19;5072634;28;20805;-72
2022/05/21 02:03:28;;;;;;;4.70;2.20;;;14.70;99.90;;;14.83;69.08;100677.19;5072965;28;20452;-73
2022/05/21 02:05:57;;;;;;;2.30;2.10;;;14.70;99.90;;;14.83;69.38;100683.47;5072771;28;20462;-73
2022/05/21 02:08:28;;;;;;;7.30;3.00;;;14.70;99.90;;;14.90;69.53;100686.91;5072648;28;20382;-72
2022/05/21 02:10:57;;;;;;;3.57;2.07;;;14.70;99.90;;;14.90;69.46;100686.91;5072927;28;20422;-72
2022/05/21 02:13:29;;;;;;;3.50;3.20;;;14.70;99.90;;;14.83;70.05;100696.25;5072707;28;20998;-72
2022/05/21 02:15:58;;;;;;;2.40;2.20;;;14.70;99.90;;;14.88;69.95;100689.03;5073060;28;20529;-73
2022/05/21 02:18:27;;;;;;;4.50;2.67;;;14.70;99.90;;;14.87;69.83;100700.97;5073096;28;20465;-72
2022/05/21 02:20:56;;;;;;;2.53;2.30;;;14.70;99.90;;;14.87;70.21;100703.72;5072437;28;20776;-72
2022/05/21 02:23:26;;;;;;;2.87;1.90;;;14.70;99.90;;;14.84;69.86;100709.63;5073087;28;20894;-72
2022/05/21 02:26:00;;;;;;;3.50;2.83;;;14.70;99.90;;;14.82;70.18;100717.19;5072542;28;20411;-73
2022/05/21 02:28:31;;;;;;;2.87;2.60;;;14.70;99.90;;;14.87;69.32;100708.31;5072959;28;20778;-73
2022/05/21 02:31:00;;;;;;;5.00;3.07;;;14.70;99.90;;;14.89;69.19;100737.00;5072601;28;20410;-72
2022/05/21 02:33:30;;;;;;;3.20;2.53;;;14.80;99.90;;;14.93;69.41;100734.63;5072569;28;20476;-72
2022/05/21 02:35:59;;;;;;;2.40;2.20;;;14.70;99.90;;;14.84;69.41;100734.16;5072898;28;20407;-72
2022/05/21 02:41:18;;;;;;;3.80;2.50;;;14.70;99.90;;;14.84;69.12;100741.50;5072387;28;20446;-72
2022/05/21 02:43:48;;;;;;;2.37;2.17;;;14.70;99.90;;;14.72;69.63;100746.91;5072487;28;20457;-72
2022/05/21 02:46:16;;;;;;;2.17;1.97;;;14.60;99.90;;;14.77;69.76;100741.59;5072338;28;20937;-72
2022/05/21 02:48:46;;;;;;;3.47;2.10;;;14.60;99.90;;;14.74;69.77;100750.25;5072286;28;20460;-72
2022/05/21 02:51:15;;;;;;;3.83;2.27;;;14.60;99.90;;;14.76;69.51;100759.81;5072016;28;20433;-73
2022/05/21 02:53:46;;;;;;;3.13;2.80;;;14.60;99.90;;;14.76;69.50;100756.31;5072231;28;20533;-71
2022/05/21 02:56:15;;;;;;;1.63;1.50;;;14.60;99.90;;;14.71;69.05;100757.00;5071979;28;20423;-72
2022/05/21 02:58:43;;;;;;;2.33;2.00;;;14.60;99.90;;;14.73;69.30;100765.75;5072277;28;20523;-73
2022/05/21 03:01:13;;;;;;;2.40;1.97;;;14.60;99.90;;;14.82;68.86;100760.78;5072551;28;20430;-72
2022/05/21 03:03:42;;;;;;;2.40;2.20;;;14.60;99.90;;;14.77;68.86;100768.81;5072450;28;20820;-72
2022/05/21 03:06:10;;;;;;;2.53;2.10;;;14.60;99.90;;;14.78;68.93;100776.78;5072351;28;20436;-73
2022/05/21 03:11:27;;;;;;;4.60;2.50;;;14.60;99.90;;;14.64;67.67;100778.03;5072222;28;20422;-73
2022/05/21 03:13:56;;;;;;;5.33;2.27;;;14.60;99.90;;;14.66;67.74;100783.25;5076642;28;20438;-72
2022/05/21 03:16:25;;;;;;;4.43;2.60;;;14.50;99.90;;;14.65;67.64;100787.88;5073600;28;20440;-72
2022/05/21 03:18:54;;;;;;;3.00;2.20;;;14.50;99.90;;;14.67;67.44;100791.19;5070455;28;20439;-72
2022/05/21 03:21:23;;;;;;;2.50;2.03;;;14.50;99.90;;;14.58;67.77;100808.06;5072404;28;20438;-72
2022/05/21 03:23:52;;;;;;;4.67;3.00;;;14.50;99.90;;;14.60;68.09;100792.34;5071983;28;20450;-73
2022/05/21 03:26:21;;;;;;;2.47;2.27;;;14.50;99.90;;;14.56;67.94;100793.88;5070680;28;20521;-73
2022/05/21 03:28:52;;;;;;;6.73;2.90;;;14.40;99.90;;;14.43;67.34;100804.94;5072331;28;20824;-72
2022/05/21 03:31:21;;;;;;;2.47;2.10;;;14.30;99.90;;;14.39;67.37;100817.34;5071748;28;20560;-73
2022/05/21 03:33:50;;;;;;;3.00;2.77;;;14.30;99.90;;;14.84;66.24;100813.16;5071665;28;20421;-72
2022/05/21 03:36:19;;;;;;;2.90;2.53;;;14.40;99.90;;;14.67;66.52;100828.47;5072928;28;20403;-72
2022/05/21 03:38:48;;;;;;;2.47;1.70;;;14.40;99.90;;;14.28;67.00;100830.63;5075519;28;20483;-72
2022/05/21 03:41:18;;;;;;;5.70;2.73;;;14.20;99.90;;;14.19;67.59;100829.28;5075724;28;20790;-72
2022/05/21 03:43:47;;;;;;;2.73;2.17;;;14.10;99.90;;;14.10;68.45;100832.53;5075231;28;20448;-72
2022/05/21 03:46:18;;;;;;;2.50;2.20;;;14.00;99.90;;;13.97;68.64;100849.84;5075724;28;20453;-72
2022/05/21 03:48:47;;;;;;;2.37;2.17;;;13.90;99.90;;;13.93;68.72;100848.63;5075472;28;20465;-72
2022/05/21 03:51:16;;;;;;;2.03;1.83;;;13.80;99.90;;;13.91;68.46;100861.59;5073844;28;20461;-73
2022/05/21 03:53:46;;;;;;;2.07;1.73;;;13.80;99.90;;;13.84;68.53;100864.41;5075662;28;20477;-72
2022/05/21 03:56:15;;;;;;;4.10;2.27;;;13.70;99.90;;;13.96;67.82;100864.50;5075321;28;20426;-72
2022/05/21 03:58:44;;;;;;;2.10;1.80;;;13.80;99.90;;;13.91;68.04;100875.22;5075638;28;20426;-75
2022/05/21 04:01:14;;;;;;;2.73;2.47;;;13.80;99.90;;;13.81;67.27;100872.16;5075479;28;20466;-72
2022/05/21 04:03:44;;;;;;;2.63;1.73;;;13.70;99.90;;;13.82;67.52;100876.56;5075551;28;20973;-73
2022/05/21 04:06:13;;;;;;;3.30;1.60;;;13.70;99.90;;;14.31;66.54;100875.63;5075621;28;20468;-73
2022/05/21 04:08:42;;;;;;;3.40;1.80;;;13.80;99.90;;;14.93;64.34;100888.06;5075222;28;20516;-73
2022/05/21 04:11:11;;;;;;;2.00;1.80;;;14.20;99.90;;;14.66;65.21;100900.38;5075471;28;20414;-72
2022/05/21 04:13:40;;;;;;;2.47;1.67;;;14.30;99.90;;;14.77;64.04;100899.59;5075256;28;20442;-73
2022/05/21 04:16:09;;;;;;;2.10;1.77;;;14.40;97.30;;;14.40;64.79;100909.69;5075401;28;20890;-72
2022/05/21 04:18:38;;;;;;;6.50;1.83;;;14.20;96.30;;;14.40;64.26;100914.28;5074837;28;20434;-72
2022/05/21 04:21:08;;;;;;;4.33;2.03;;;14.10;94.20;;;14.09;62.79;100935.09;5074824;28;20457;-72
2022/05/21 04:23:37;;;;;;;1.40;1.30;;;14.00;87.80;;;14.58;59.80;100922.44;5074750;28;20887;-72
2022/05/21 04:26:06;;;;;;;2.37;1.10;;;14.10;71.10;;;14.75;58.55;100918.91;5075160;28;20427;-72
2022/05/21 04:28:36;;;;;;;3.93;1.97;;;14.30;58.40;;;15.03;57.05;100955.63;5074489;28;21077;-73
2022/05/21 04:31:05;;;;;;;1.80;1.37;;;14.40;49.20;;;15.87;55.04;100950.00;5075594;28;20425;-73
2022/05/21 04:33:34;;;;;;;2.13;1.10;;;14.80;45.30;;;15.83;55.06;100950.72;5075585;28;22110;-73
2022/05/21 04:36:22;;;;;;;2.23;1.57;;;15.00;40.30;;;16.19;54.37;100946.91;5074821;28;20509;-73
2022/05/21 04:38:55;;;;;;;3.73;1.20;;;15.20;37.20;;;16.09;54.56;100972.91;5074675;28;20776;-73
2022/05/21 04:41:25;;;;;;;2.20;1.40;;;15.30;34.60;;;16.22;54.32;100969.09;5074401;28;20446;-73
2022/05/21 04:43:55;;;;;;;2.37;1.43;;;15.30;34.00;;;15.48;55.75;100972.41;5074889;28;21147;-72
2022/05/21 04:46:25;;;;;;;6.37;1.87;;;15.10;34.00;;;15.27;56.60;100992.00;5074817;28;20403;-72
2022/05/21 04:48:54;;;;;;;4.60;1.50;;;14.80;36.90;;;14.30;59.47;100997.28;5073994;28;20470;-72
2022/05/21 04:51:37;;;;;;;2.90;1.63;;;14.30;42.50;;;14.00;60.63;100993.56;5075081;28;20418;-72
2022/05/21 04:54:07;;;;;;;2.13;1.10;;;13.90;49.70;;;14.42;60.16;100991.16;5075056;28;20454;-72
2022/05/21 04:56:36;;;;;;;3.53;1.23;;;13.90;55.70;;;14.47;59.79;101004.91;5075881;28;20422;-73
2022/05/21 04:59:08;;;;;;;1.63;1.20;;;14.00;54.90;;;15.51;57.16;100993.78;5074743;28;20407;-72
2022/05/21 05:01:38;;;;;;;2.03;1.57;;;14.50;50.70;;;16.06;55.32;101003.44;5074445;28;20960;-72
2022/05/21 05:04:10;;;;;;;2.70;1.13;;;15.10;43.00;;;17.62;52.13;101002.44;5074446;28;20500;-71
2022/05/21 05:06:39;;;;;;;1.57;1.07;;;15.80;37.20;;;18.76;49.24;100994.72;5074271;28;20410;-73
2022/05/21 05:09:10;;;;;;;2.03;1.07;;;16.70;28.90;;;18.66;49.81;100995.41;5075873;28;20458;-72
2022/05/21 05:11:40;;;;;;;7.03;1.60;;;17.20;25.20;;;16.89;54.20;101019.56;5074814;28;20430;-73
2022/05/21 05:14:09;;;;;;;2.07;1.50;;;16.60;27.10;;;16.52;55.33;101018.16;5074185;28;20456;-73
2022/05/21 05:16:37;;;;;;;3.10;1.60;;;16.30;28.70;;;15.44;58.45;101012.94;5074834;28;20421;-72
2022/05/21 05:19:07;;;;;;;2.43;2.03;;;15.40;35.20;;;16.01;57.66;101016.94;5074163;28;20409;-73
2022/05/21 05:21:35;;;;;;;2.23;1.80;;;15.20;44.10;;;15.87;57.56;101023.69;5074707;28;20472;-73
2022/05/21 05:24:05;;;;;;;2.30;1.20;;;15.30;42.90;;;16.74;55.50;101021.97;5073612;28;20533;-74
2022/05/21 05:26:35;;;;;;;2.73;2.40;;;15.40;42.30;;;16.50;55.93;101025.78;5073760;28;20620;-73
2022/05/21 05:29:05;;;;;;;6.40;1.70;;;15.60;39.80;;;14.86;59.61;101022.72;5073780;28;20973;-73
2022/05/21 05:31:34;;;;;;;2.10;1.60;;;14.90;42.60;;;14.54;60.33;101019.28;5073966;28;20418;-72
2022/05/21 05:34:03;;;;;;;1.70;1.40;;;14.60;47.80;;;14.50;61.55;101024.34;5073474;28;20653;-72
2022/05/21 05:36:32;;;;;;;1.50;1.30;;;14.40;56.40;;;14.50;60.75;101031.69;5073603;28;20434;-73
2022/05/21 05:39:02;;;;;;;2.60;1.90;;;14.30;55.50;;;14.18;61.37;101031.75;5073481;28;20502;-72
2022/05/21 05:41:31;;;;;;;3.07;2.13;;;14.10;57.80;;;14.17;61.44;101032.78;5073228;28;20942;-72
2022/05/21 05:44:01;;;;;;;3.30;1.50;;;14.00;60.30;;;14.30;61.66;101048.16;5073479;28;20984;-72
2022/05/21 05:46:30;;;;;;;2.17;1.90;;;14.00;64.60;;;13.97;62.06;101021.25;5072992;28;20449;-70
2022/05/21 05:48:59;;;;;;;2.57;2.10;;;13.90;61.80;;;14.01;62.12;101032.50;5072450;28;20462;-72
2022/05/21 05:51:28;;;;;;;2.80;1.97;;;13.80;65.70;;;14.21;61.57;101039.47;5077841;28;20554;-73
2022/05/21 05:53:57;;;;;;;2.83;1.97;;;14.00;67.60;;;14.20;61.16;101034.22;5074284;28;20953;-72
2022/05/21 05:56:29;;;;;;;3.03;1.53;;;14.00;61.60;;;14.19;60.78;101032.56;5105691;22;20495;-70
2022/05/21 06:01:46;;;;;;;2.60;2.10;;;14.00;64.00;;;13.96;61.14;101044.06;5037254;28;20502;-71
2022/05/21 06:04:15;;;;;;;3.37;2.00;;;13.90;58.20;;;14.25;61.33;101048.84;5031759;28;20950;-71
2022/05/21 06:06:44;;;;;;;3.80;2.00;;;14.00;63.50;;;14.30;60.62;101051.72;5031774;28;20442;-71
2022/05/21 06:09:13;;;;;;;3.30;2.50;;;14.20;57.10;;;14.31;60.92;101044.41;5031412;28;20452;-70
2022/05/21 06:11:43;;;;;;;2.40;1.80;;;14.10;58.60;;;15.16;59.21;101062.59;5031056;28;20447;-71
2022/05/21 06:14:13;;;;;;;2.10;1.70;;;14.50;58.40;;;14.78;59.10;101053.81;5031447;28;20776;-72
2022/05/21 06:16:42;;;;;;;6.40;2.00;;;14.60;50.10;;;15.36;58.53;101058.78;5031021;28;20408;-70
2022/05/21 06:19:11;;;;;;;2.10;1.30;;;14.90;51.10;;;15.15;58.04;101065.56;5031038;28;20424;-71
2022/05/21 06:21:40;;;;;;;3.87;1.90;;;14.90;44.70;;;14.95;57.90;101071.25;5031422;28;20871;-71
2022/05/21 06:24:09;;;;;;;3.00;2.17;;;14.80;42.20;;;15.12;58.67;101066.00;5031169;28;20516;-71
2022/05/21 06:26:38;;;;;;;1.73;1.40;;;14.80;46.40;;;15.20;57.46;101061.06;5031198;28;20774;-71
2022/05/21 06:29:07;;;;;;;3.20;1.67;;;14.90;43.00;;;15.25;57.67;101073.22;5031054;28;20455;-70
2022/05/21 06:31:44;;;;;;;3.23;1.20;;;14.90;42.90;;;15.17;57.30;101064.25;5031006;28;20455;-71
2022/05/21 06:34:13;;;;;;;2.43;1.73;;;14.80;40.50;;;15.35;57.59;101078.94;5031338;28;20890;-72
2022/05/21 06:36:42;;;;;;;2.50;1.97;;;15.00;42.50;;;15.54;57.24;101067.00;5031168;28;20432;-70
2022/05/21 06:39:11;;;;;;;2.60;2.13;;;15.10;41.80;;;15.55;57.24;101076.81;5030989;28;20832;-71
2022/05/21 06:41:40;;;;;;;3.63;2.37;;;15.20;40.20;;;15.57;56.99;101083.72;5030168;28;20444;-72
2022/05/21 06:44:09;;;;;;;4.63;2.47;;;15.20;39.50;;;15.09;56.77;101078.22;5031261;28;20416;-70
2022/05/21 06:46:38;;;;;;;3.00;2.50;;;15.00;35.70;;;15.12;57.73;101087.81;5012963;28;20494;-72
2022/05/21 06:49:09;;;;;;;2.53;1.50;;;14.80;39.80;;;14.92;57.40;101085.31;5030784;28;20962;-71
2022/05/21 06:51:38;;;;;;;7.30;1.60;;;14.80;37.90;;;15.02;56.98;101085.63;5030029;28;20423;-72
2022/05/21 06:54:07;;;;;;;3.10;2.43;;;14.80;37.80;;;14.79;57.43;101074.56;5030660;28;20428;-71
2022/05/21 06:56:36;;;;;;;3.77;2.77;;;14.60;36.30;;;15.28;57.80;101086.38;5032030;28;20426;-71
2022/05/21 06:59:05;;;;;;;4.43;2.00;;;14.80;40.80;;;15.47;56.17;101091.59;5030719;28;20383;-72
2022/05/21 07:01:34;;;;;;;3.03;2.27;;;15.00;35.50;;;15.46;55.71;101078.16;5030306;28;20441;-72
2022/05/21 07:04:04;;;;;;;2.40;1.60;;;15.10;32.90;;;15.64;55.29;101067.25;5030360;28;20391;-71
2022/05/21 07:09:21;;;;;;;3.93;1.70;;;15.30;31.50;;;15.48;55.48;101089.69;5030872;28;20633;-72
2022/05/21 07:11:51;;;;;;;2.43;1.80;;;15.20;29.90;;;15.62;55.46;101088.47;5029532;28;20448;-72
2022/05/21 07:14:20;;;;;;;2.03;1.67;;;15.30;30.90;;;16.43;54.67;101102.34;5030424;28;20616;-72
2022/05/21 07:16:50;;;;;;;4.97;3.53;;;15.70;32.00;;;16.53;54.50;101108.06;5030726;28;20427;-71
2022/05/21 07:19:18;;;;;;;3.63;2.17;;;15.90;29.90;;;16.50;53.59;101107.72;5030597;28;20424;-71
2022/05/21 07:21:49;;;;;;;1.80;1.23;;;16.00;27.40;;;15.82;54.65;101099.97;5030324;28;20946;-72
2022/05/21 07:24:18;;;;;;;2.90;1.63;;;15.70;26.20;;;16.38;54.72;101102.22;5030952;28;20380;-71
2022/05/21 07:26:47;;;;;;;2.30;1.50;;;15.90;29.10;;;16.08;54.07;101105.00;5013202;28;20460;-71
2022/05/21 07:29:16;;;;;;;2.73;1.30;;;15.90;25.60;;;16.25;54.49;101099.72;5030251;28;20502;-72
2022/05/21 07:31:45;;;;;;;2.50;1.80;;;15.90;27.20;;;16.46;54.19;101106.50;5030385;28;20423;-71
2022/05/21 07:34:13;;;;;;;3.97;2.30;;;16.10;27.00;;;15.78;55.57;101104.19;5030447;28;20768;-71
2022/05/21 07:36:42;;;;;;;3.00;2.17;;;15.70;27.20;;;15.54;56.14;101099.72;5030261;28;20425;-70
2022/05/21 07:39:12;;;;;;;5.10;2.27;;;15.40;28.20;;;15.65;56.52;101088.00;5030862;28;20915;-70
2022/05/21 07:41:41;;;;;;;2.00;1.50;;;15.40;30.70;;;15.81;56.32;101092.81;5031126;28;20451;-72
2022/05/21 07:44:10;;;;;;;2.13;1.70;;;15.60;31.30;;;16.28;55.87;101090.22;5030922;28;20408;-72
2022/05/21 07:46:40;;;;;;;3.20;1.83;;;15.90;32.10;;;16.39;55.59;101073.03;5030383;28;20437;-71
2022/05/21 07:49:10;;;;;;;3.23;1.67;;;16.00;30.70;;;16.76;54.97;101079.94;5031061;28;20532;-70
2022/05/21 07:51:39;;;;;;;2.80;2.03;;;16.40;30.40;;;16.89;54.39;101071.50;5033506;28;20843;-72
2022/05/21 07:54:08;;;;;;;2.43;1.50;;;16.60;28.80;;;16.74;55.05;101075.81;5037150;28;20421;-71
2022/05/21 07:56:39;;;;;;;4.23;2.97;;;16.50;28.40;;;17.05;54.85;101071.81;5033833;28;20418;-71
2022/05/21 07:59:08;;;;;;;5.60;1.83;;;16.70;29.40;;;17.09;53.91;101073.03;5014020;28;20902;-73
2022/05/21 08:01:37;;;;;;;4.23;2.10;;;16.80;26.90;;;16.93;54.64;101069.97;5030755;28;20450;-73
2022/05/21 08:04:06;;;;;;;4.47;2.47;;;16.80;27.20;;;17.06;54.43;101076.22;5031591;28;20428;-71
2022/05/21 08:06:35;;;;;;;1.43;1.20;;;16.90;26.60;;;17.21;54.12;101066.47;5014538;28;20436;-71
2022/05/21 08:09:04;;;;;;;2.43;1.70;;;16.90;26.80;;;17.33;54.26;101075.44;5031568;28;22363;-72
2022/05/21 08:11:34;;;;;;;6.37;1.90;;;16.90;27.10;;;17.46;54.11;101068.88;5031458;28;20447;-71
2022/05/21 08:14:05;;;;;;;2.37;1.90;;;17.10;27.10;;;17.69;53.46;101067.97;5012931;28;20436;-71
2022/05/21 08:16:34;;;;;;;2.70;1.57;;;17.20;26.20;;;18.35;52.18;101067.22;5029690;28;20474;-73
2022/05/21 08:19:04;;;;;;;4.80;2.00;;;17.70;25.70;;;18.77;51.79;101081.38;5012590;28;20428;-71
2022/05/21 08:21:33;;;;;;;2.57;1.77;;;18.10;24.70;;;18.46;51.23;101060.84;5029949;28;20415;-72
2022/05/21 08:26:57;;;;;;;2.60;1.77;;;18.20;22.40;;;18.84;50.51;101064.72;5015795;28;20440;-71
2022/05/21 08:29:30;;;;;;;2.90;1.80;;;18.40;19.60;;;18.46;51.64;101074.53;5033755;28;20483;-72
2022/05/21 08:32:00;;;;;;;3.00;1.97;;;18.30;19.10;;;18.52;51.47;101064.50;5033444;28;20911;-71
2022/05/21 08:34:31;;;;;;;2.63;1.80;;;18.10;19.50;;;18.69;51.90;101054.34;5033904;28;20394;-71
2022/05/21 08:37:00;;;;;;;4.77;2.10;;;18.20;20.80;;;18.64;51.31;101052.38;5033870;28;20429;-72
2022/05/21 08:39:29;;;;;;;2.47;1.40;;;18.20;19.50;;;18.87;50.22;101051.34;5034553;28;20405;-71
2022/05/21 08:42:09;;;;;;;2.47;1.30;;;18.30;18.80;;;18.71;50.90;101060.44;5035780;28;20468;-71
2022/05/21 08:44:46;;;;;;;3.00;1.80;;;18.20;18.60;;;18.18;51.68;101060.94;5036811;28;20746;-73
2022/05/21 08:47:21;;;;;;;2.80;1.30;;;18.00;18.50;;;18.17;52.65;101049.13;5037242;28;20919;-72
2022/05/21 08:49:59;;;;;;;2.57;1.50;;;17.90;19.80;;;18.10;52.97;101055.88;5020733;28;20462;-72
2022/05/21 08:52:37;;;;;;;5.00;2.10;;;17.90;20.00;;;17.48;54.97;101071.34;5038554;28;20466;-72
2022/05/21 08:55:11;;;;;;;6.03;1.93;;;17.50;22.30;;;16.65;58.19;101074.50;5039029;28;20412;-71
2022/05/21 08:57:47;;;;;;;5.67;4.30;;;16.80;27.60;;;15.85;61.78;101083.09;5038935;28;20455;-71
2022/05/21 09:00:23;;;;;;;5.33;3.23;;;16.10;42.00;;;15.44;64.98;101104.84;5023456;28;20440;-72
2022/05/21 09:02:54;;;;;;;2.77;2.20;;;15.70;72.60;;;15.05;67.07;101103.41;5041640;28;20446;-72
2022/05/21 09:05:25;;;;;;;5.00;3.57;;;15.20;96.00;;;14.82;69.09;101106.78;5023467;28;20544;-73
2022/05/21 09:08:10;;;;;;;3.80;2.30;;;14.90;99.90;;;15.09;70.32;101113.63;5038413;28;20462;-72
2022/05/21 09:10:55;;;;;;;3.43;2.57;;;14.80;99.90;;;15.41;69.16;101113.47;5033380;28;20464;-73
2022/05/21 09:13:36;;;;;;;5.60;3.07;;;15.00;99.90;;;16.20;68.57;101104.22;5033357;28;20932;-71
2022/05/21 09:18:57;;;;;;;4.43;2.50;;;16.00;99.90;;;17.37;65.96;101103.16;5019078;28;20451;-72
2022/05/21 09:21:31;;;;;;;3.60;2.30;;;16.50;99.90;;;17.04;64.61;101095.59;5035921;28;20801;-71
2022/05/21 09:24:04;;;;;;;12.50;5.07;;;16.70;99.90;;;17.04;64.86;101092.06;5030814;28;20439;-72
2022/05/21 09:26:48;;;;;;;4.70;2.80;;;16.60;99.90;;;16.59;63.83;101089.94;5032806;28;20408;-71
2022/05/21 09:29:22;;;;;;;4.13;2.47;;;16.50;93.70;;;16.80;64.08;101094.78;5032312;28;20439;-71
2022/05/21 09:31:53;;;;;;;4.40;3.23;;;16.50;95.70;;;17.27;62.05;101097.47;5032630;28;20567;-72
2022/05/21 09:34:29;;;;;;;5.60;2.93;;;16.70;93.80;;;17.16;60.38;101096.44;5031831;28;20911;-73
2022/05/21 09:36:59;;;;;;;3.53;2.90;;;16.80;79.60;;;17.29;61.17;101100.78;5032320;28;20417;-72
2022/05/21 09:39:34;;;;;;;2.73;2.53;;;16.90;82.70;;;17.11;60.41;101099.06;5033148;28;20483;-73
2022/05/21 09:45:25;;;;;;;4.60;3.40;;;16.30;75.60;;;16.44;61.87;101095.00;5014223;28;20942;-71
2022/05/21 09:48:23;;;;;;;4.50;3.80;;;16.20;77.70;;;16.77;60.65;101094.44;5031888;28;20398;-71
2022/05/21 09:50:57;;;;;;;6.00;4.37;;;16.30;81.50;;;16.30;61.65;101096.28;5031542;28;20483;-73
2022/05/21 09:53:36;;;;;;;7.20;4.10;;;16.20;76.30;;;16.48;61.19;101094.28;5032352;28;20426;-72
2022/05/21 09:56:18;;;;;;;4.10;3.63;;;16.20;77.70;;;16.47;60.89;101092.63;5032052;28;20412;-72
2022/05/21 09:58:50;;;;;;;8.90;4.40;;;16.30;72.70;;;16.42;61.30;101106.16;5052091;28;20914;-72
2022/05/21 10:01:36;;;;;;;7.93;4.33;;;16.20;74.30;;;16.63;60.33;101102.06;5051904;28;20511;-71
2022/05/21 10:04:23;;;;;;;7.37;4.73;;;16.30;69.10;;;17.31;59.40;101101.41;5051989;28;20397;-71
2022/05/21 10:06:59;;;;;;;3.93;3.50;;;16.60;69.60;;;17.61;57.78;101110.25;5052615;28;20386;-71
2022/05/21 10:12:29;;;;;;;6.00;4.87;;;17.20;53.60;;;18.24;56.58;101087.34;5052986;28;20977;-72
2022/05/21 10:15:08;;;;;;;7.60;5.00;;;17.60;51.00;;;18.36;55.75;101096.28;5053462;28;20881;-73
2022/05/21 10:17:43;;;;;;;10.70;5.50;;;17.90;46.10;;;18.56;54.43;101096.66;5032425;28;20406;-72
2022/05/21 10:20:22;;;;;;;7.33;5.40;;;18.10;38.50;;;18.66;54.36;101096.81;5032395;28;20883;-72
2022/05/21 10:23:02;;;;;;;5.83;5.07;;;18.10;36.90;;;19.24;53.59;101091.88;5032702;28;20831;-73
2022/05/21 10:25:45;;;;;;;6.73;4.70;;;18.50;35.40;;;19.22;53.15;101089.38;5047878;28;20398;-72
2022/05/21 10:28:52;;;;;;;5.53;4.97;;;18.70;30.80;;;18.89;53.75;101078.50;5051075;28;20386;-72
2022/05/21 10:31:39;;;;;;;6.43;4.87;;;18.70;29.30;;;18.71;53.42;101076.03;5051061;28;20595;-74
2022/05/21 10:34:32;;;;;;;6.93;6.17;;;18.50;27.30;;;19.18;52.07;101074.50;5051320;28;20491;-71
2022/05/21 10:37:35;;;;;;;8.50;6.67;;;18.60;25.50;;;18.81;52.40;101071.53;5051282;28;20503;-72
2022/05/21 10:40:23;;;;;;;6.70;5.40;;;18.60;23.10;;;19.39;51.64;101062.72;5051105;28;20413;-71
2022/05/21 10:43:14;;;;;;;6.33;5.77;;;18.90;23.90;;;20.00;50.29;101052.41;5033483;28;20427;-71
2022/05/21 10:46:04;;;;;;;5.63;5.20;;;19.40;21.70;;;20.04;49.13;101064.56;5018488;28;20415;-72
2022/05/21 10:49:10;;;;;;;5.57;5.07;;;19.50;18.30;;;19.39;50.40;101062.72;5010958;28;20780;-71
2022/05/21 10:51:50;;;;;;;6.20;5.27;;;19.30;17.00;;;19.03;51.13;101057.84;5012685;28;20500;-72
2022/05/21 10:54:44;;;;;;;5.00;4.50;;;18.90;17.70;;;18.30;52.38;101053.44;5030598;28;20438;-71
2022/05/21 10:58:09;;;;;;;6.97;4.60;;;18.40;18.40;;;17.96;52.75;101057.28;5030824;28;20509;-71
2022/05/21 11:00:52;;;;;;;6.03;4.40;;;17.90;20.00;;;17.58;54.35;101066.91;5030513;28;20443;-72